createdAt,value
2019-03-30T00:01:12.498Z,10.15
2019-03-30T00:03:45.331Z,9.78
2019-03-30T00:06:18.029Z,11.83
2019-03-30T00:08:50.598Z,10.80
2019-03-30T00:11:23.400Z,10.70
2019-03-30T00:13:56.038Z,11.08
2019-03-30T00:16:28.618Z,8.95
2019-03-30T00:19:01.171Z,9.93
2019-03-30T00:21:33.668Z,9.18
2019-03-30T00:24:06.338Z,9.90
2019-03-30T00:26:38.840Z,10.58
2019-03-30T00:29:11.387Z,11.05
2019-03-30T00:31:44.050Z,9.68
2019-03-30T00:34:16.856Z,9.63
2019-03-30T00:36:49.428Z,10.00
2019-03-30T00:39:21.977Z,10.63
2019-03-30T00:41:54.487Z,11.65
2019-03-30T00:44:26.878Z,10.15
2019-03-30T00:46:59.567Z,10.68
2019-03-30T00:49:32.457Z,9.85
2019-03-30T00:52:05.356Z,9.38
2019-03-30T00:54:38.143Z,10.58
2019-03-30T00:57:10.657Z,11.63
2019-03-30T00:59:43.345Z,9.23
2019-03-30T01:02:16.157Z,11.15
2019-03-30T01:04:48.998Z,10.25
2019-03-30T01:07:21.857Z,10.20
2019-03-30T01:09:57.817Z,10.65
2019-03-30T01:12:31.048Z,9.83
2019-03-30T01:15:04.216Z,10.32
2019-03-30T01:17:37.990Z,10.58
2019-03-30T01:20:10.976Z,11.55
2019-03-30T01:22:43.817Z,11.65
2019-03-30T01:25:16.656Z,10.38
2019-03-30T01:27:49.497Z,10.43
2019-03-30T01:30:23.681Z,21.50
2019-03-30T01:33:03.860Z,18.12
2019-03-30T01:35:36.967Z,10.68
2019-03-30T01:38:10.017Z,11.15
2019-03-30T01:40:43.037Z,11.28
2019-03-30T01:43:15.836Z,10.40
2019-03-30T01:45:48.679Z,10.38
2019-03-30T01:48:21.307Z,10.95
2019-03-30T01:50:54.202Z,11.33
2019-03-30T01:53:26.838Z,10.65
2019-03-30T01:55:59.916Z,12.47
2019-03-30T01:58:32.666Z,11.70
2019-03-30T02:01:05.737Z,11.28
2019-03-30T02:03:39.755Z,11.35
2019-03-30T02:06:12.514Z,11.18
2019-03-30T02:08:45.617Z,10.80
2019-03-30T02:11:18.374Z,11.00
2019-03-30T02:13:51.546Z,11.40
2019-03-30T02:16:24.197Z,10.82
2019-03-30T02:18:56.980Z,11.38
2019-03-30T02:21:33.899Z,11.57
2019-03-30T02:24:06.946Z,10.63
2019-03-30T02:26:47.887Z,10.68
2019-03-30T02:29:22.197Z,11.33
2019-03-30T02:31:55.248Z,11.10
2019-03-30T02:34:28.371Z,10.53
2019-03-30T02:37:01.361Z,10.90
2019-03-30T02:39:34.295Z,10.65
2019-03-30T02:42:07.252Z,11.75
2019-03-30T02:44:40.036Z,11.35
2019-03-30T02:47:12.930Z,11.40
2019-03-30T02:49:46.483Z,10.15
2019-03-30T02:52:19.096Z,10.50
2019-03-30T02:54:51.785Z,10.80
2019-03-30T02:57:24.580Z,10.28
2019-03-30T02:59:57.656Z,9.23
2019-03-30T03:02:30.256Z,10.05
2019-03-30T03:05:03.097Z,10.68
2019-03-30T03:07:36.688Z,9.50
2019-03-30T03:10:10.216Z,10.95
2019-03-30T03:12:42.951Z,10.18
2019-03-30T03:15:15.966Z,10.28
2019-03-30T03:17:48.736Z,11.03
2019-03-30T03:20:21.461Z,11.38
2019-03-30T03:22:54.367Z,9.80
2019-03-30T03:25:27.047Z,9.33
2019-03-30T03:27:59.909Z,10.35
2019-03-30T03:30:32.588Z,9.45
2019-03-30T03:33:05.608Z,10.18
2019-03-30T03:35:38.213Z,9.43
2019-03-30T03:38:11.018Z,10.08
2019-03-30T03:40:43.805Z,9.93
2019-03-30T03:43:16.733Z,9.20
2019-03-30T03:45:49.465Z,11.22
2019-03-30T03:48:22.458Z,10.08
2019-03-30T03:51:01.768Z,11.18
2019-03-30T03:53:36.109Z,10.43
2019-03-30T03:56:10.122Z,10.78
2019-03-30T03:58:43.909Z,10.55
2019-03-30T04:01:19.167Z,9.73
2019-03-30T04:03:54.237Z,10.85
2019-03-30T04:06:28.387Z,9.95
2019-03-30T04:09:03.905Z,10.38
2019-03-30T04:11:38.663Z,11.05
2019-03-30T04:14:14.454Z,10.10
2019-03-30T04:16:46.986Z,9.43
2019-03-30T04:19:19.918Z,9.30
2019-03-30T04:21:52.669Z,9.15
2019-03-30T04:24:26.567Z,10.53
2019-03-30T04:26:59.330Z,10.35
2019-03-30T04:29:32.159Z,10.38
2019-03-30T04:32:04.829Z,10.05
2019-03-30T04:34:37.847Z,10.48
2019-03-30T04:37:11.917Z,8.80
2019-03-30T04:39:45.022Z,10.32
2019-03-30T04:42:18.027Z,9.38
2019-03-30T04:44:51.007Z,10.13
2019-03-30T04:47:23.678Z,9.55
2019-03-30T04:49:56.677Z,10.85
2019-03-30T04:52:29.325Z,10.10
2019-03-30T04:55:02.157Z,10.55
2019-03-30T04:57:34.756Z,10.40
2019-03-30T05:00:08.322Z,9.00
2019-03-30T05:02:41.027Z,10.03
2019-03-30T05:05:14.037Z,9.28
2019-03-30T05:07:46.858Z,8.98
2019-03-30T05:10:19.776Z,9.03
2019-03-30T05:12:52.856Z,9.40
2019-03-30T05:15:25.667Z,8.68
2019-03-30T05:18:00.117Z,10.65
2019-03-30T05:20:32.915Z,11.55
2019-03-30T05:23:05.895Z,11.68
2019-03-30T05:25:39.006Z,11.25
2019-03-30T05:28:11.881Z,10.18
2019-03-30T05:30:44.597Z,11.43
2019-03-30T05:33:17.437Z,10.93
2019-03-30T05:35:50.179Z,11.03
2019-03-30T05:38:23.192Z,10.30
2019-03-30T05:40:56.054Z,11.35
2019-03-30T05:43:29.816Z,10.30
2019-03-30T05:46:02.765Z,9.43
2019-03-30T05:48:35.619Z,10.32
2019-03-30T05:51:08.257Z,10.93
2019-03-30T05:53:41.065Z,11.08
2019-03-30T05:56:13.921Z,12.33
2019-03-30T05:58:47.296Z,12.07
2019-03-30T06:01:21.280Z,12.53
2019-03-30T06:03:54.167Z,12.18
2019-03-30T06:06:26.867Z,12.18
2019-03-30T06:08:59.797Z,12.05
2019-03-30T06:11:32.547Z,11.78
2019-03-30T06:14:05.537Z,11.10
2019-03-30T06:16:38.418Z,10.88
2019-03-30T06:19:11.327Z,10.00
2019-03-30T06:21:44.136Z,10.38
2019-03-30T06:24:16.917Z,9.90
2019-03-30T06:26:49.952Z,10.72
2019-03-30T06:29:23.197Z,9.25
2019-03-30T06:31:56.015Z,9.90
2019-03-30T06:34:28.876Z,10.28
2019-03-30T06:37:01.748Z,9.95
2019-03-30T06:39:37.039Z,9.98
2019-03-30T06:42:09.426Z,10.25
2019-03-30T06:44:42.398Z,10.38
2019-03-30T06:47:15.243Z,9.88
2019-03-30T06:49:48.007Z,8.30
2019-03-30T06:52:20.847Z,9.25
2019-03-30T06:54:53.787Z,9.28
2019-03-30T06:57:26.727Z,9.38
2019-03-30T06:59:59.665Z,8.95
2019-03-30T07:02:32.467Z,10.20
2019-03-30T07:05:05.617Z,9.00
2019-03-30T07:07:40.397Z,11.15
2019-03-30T07:10:13.476Z,9.35
2019-03-30T07:12:50.067Z,9.50
2019-03-30T07:15:23.776Z,9.53
2019-03-30T07:17:59.657Z,9.58
2019-03-30T07:20:33.136Z,9.08
2019-03-30T07:23:11.969Z,9.53
2019-03-30T07:25:39.837Z,8.10
2019-03-30T07:28:12.395Z,9.25
2019-03-30T07:30:45.023Z,7.80
2019-03-30T07:33:17.597Z,8.00
2019-03-30T07:35:50.337Z,8.15
2019-03-30T07:38:22.827Z,8.25
2019-03-30T07:40:55.778Z,8.68
2019-03-30T07:43:28.376Z,8.95
2019-03-30T07:46:01.099Z,9.03
2019-03-30T07:48:33.735Z,8.13
2019-03-30T07:51:06.639Z,9.48
2019-03-30T07:53:44.595Z,8.98
2019-03-30T07:56:13.644Z,9.18
2019-03-30T07:58:46.517Z,7.75
2019-03-30T08:01:19.264Z,7.87
2019-03-30T08:03:52.289Z,8.95
2019-03-30T08:06:26.517Z,9.18
2019-03-30T08:08:59.257Z,9.63
2019-03-30T08:11:31.937Z,8.50
2019-03-30T08:14:04.896Z,8.28
2019-03-30T08:16:38.087Z,8.45
2019-03-30T08:19:11.341Z,7.47
2019-03-30T08:21:44.456Z,9.00
2019-03-30T08:24:17.111Z,9.50
2019-03-30T08:26:50.087Z,8.73
2019-03-30T08:29:22.729Z,8.58
2019-03-30T08:31:55.460Z,10.08
2019-03-30T08:34:28.467Z,10.38
2019-03-30T08:37:01.615Z,10.20
2019-03-30T08:39:35.503Z,9.65
2019-03-30T08:42:09.547Z,11.08
2019-03-30T08:44:43.456Z,10.75
2019-03-30T08:47:16.308Z,9.30
2019-03-30T08:49:50.758Z,10.28
2019-03-30T08:52:27.507Z,10.13
2019-03-30T08:55:00.381Z,9.33
2019-03-30T08:57:33.268Z,8.55
2019-03-30T09:00:07.613Z,9.08
2019-03-30T09:02:41.106Z,9.60
2019-03-30T09:05:23.597Z,9.88
2019-03-30T09:07:56.858Z,9.90
2019-03-30T09:10:32.617Z,10.80
2019-03-30T09:13:20.477Z,11.55
2019-03-30T09:16:17.437Z,10.88
2019-03-30T09:18:50.867Z,10.93
2019-03-30T09:21:29.310Z,10.20
2019-03-30T09:24:09.828Z,11.70
2019-03-30T09:26:43.067Z,11.45
2019-03-30T09:29:19.810Z,10.75
2019-03-30T09:32:14.585Z,10.25
2019-03-30T09:34:44.508Z,9.63
2019-03-30T09:37:18.740Z,13.40
2019-03-30T09:39:51.367Z,11.03
2019-03-30T09:42:25.438Z,11.12
2019-03-30T09:44:58.537Z,11.25
2019-03-30T09:47:31.547Z,10.40
2019-03-30T09:50:04.766Z,11.50
2019-03-30T09:52:37.554Z,11.60
2019-03-30T09:55:10.686Z,10.25
2019-03-30T09:57:43.357Z,11.18
2019-03-30T10:00:37.357Z,10.63
2019-03-30T10:03:13.987Z,10.50
2019-03-30T10:05:48.275Z,10.72
2019-03-30T10:08:23.537Z,10.30
2019-03-30T10:10:56.257Z,9.53
2019-03-30T10:13:29.229Z,10.55
2019-03-30T10:16:02.028Z,10.15
2019-03-30T10:18:36.237Z,10.53
2019-03-30T10:21:11.300Z,10.55
2019-03-30T10:23:53.839Z,12.03
2019-03-30T10:26:30.870Z,10.53
2019-03-30T10:29:05.717Z,10.23
2019-03-30T10:32:15.300Z,8.80
2019-03-30T10:37:39.938Z,10.05
2019-03-30T10:40:14.317Z,9.53
2019-03-30T10:42:46.818Z,9.33
2019-03-30T10:45:19.685Z,9.55
2019-03-30T10:47:52.227Z,9.65
2019-03-30T10:50:24.919Z,9.60
2019-03-30T10:52:57.448Z,9.00
2019-03-30T10:55:30.046Z,10.08
2019-03-30T10:58:02.801Z,11.10
2019-03-30T11:00:42.476Z,11.83
2019-03-30T11:03:15.466Z,11.93
2019-03-30T11:05:48.087Z,11.68
2019-03-30T11:08:20.738Z,15.93
2019-03-30T11:10:53.476Z,18.20
2019-03-30T11:13:26.009Z,16.60
2019-03-30T11:15:58.598Z,19.12
2019-03-30T11:18:31.130Z,18.57
2019-03-30T11:21:05.057Z,21.05
2019-03-30T11:23:37.867Z,24.30
2019-03-30T11:26:10.437Z,20.65
2019-03-30T11:28:43.176Z,19.45
2019-03-30T11:31:15.786Z,20.90
2019-03-30T11:33:48.369Z,18.57
2019-03-30T11:36:21.039Z,20.40
2019-03-30T11:38:54.718Z,19.27
2019-03-30T11:41:27.357Z,19.77
2019-03-30T11:44:00.026Z,16.77
2019-03-30T11:46:32.794Z,18.92
2019-03-30T11:49:05.897Z,18.02
2019-03-30T11:51:39.886Z,16.77
2019-03-30T11:54:12.796Z,18.57
2019-03-30T11:56:57.366Z,21.95
2019-03-30T11:59:30.342Z,22.60
2019-03-30T12:02:07.307Z,30.57
2019-03-30T12:04:42.696Z,22.77
2019-03-30T12:07:21.116Z,17.55
2019-03-30T12:09:53.851Z,17.82
2019-03-30T12:12:37.537Z,24.02
2019-03-30T12:15:17.066Z,19.32
2019-03-30T12:17:49.654Z,23.25
2019-03-30T12:20:22.486Z,25.00
2019-03-30T12:22:55.141Z,18.77
2019-03-30T12:25:35.468Z,22.82
2019-03-30T12:28:19.986Z,17.55
2019-03-30T12:30:52.588Z,20.55
2019-03-30T12:33:25.636Z,16.95
2019-03-30T12:35:58.237Z,17.92
2019-03-30T12:38:30.758Z,19.55
2019-03-30T12:41:13.417Z,19.02
2019-03-30T12:43:45.947Z,18.15
2019-03-30T12:46:18.444Z,26.77
2019-03-30T12:48:51.391Z,28.47
2019-03-30T12:51:46.317Z,35.68
2019-03-30T12:54:27.835Z,22.00
2019-03-30T12:57:52.339Z,63.08
2019-03-30T13:00:34.273Z,18.70
2019-03-30T13:03:12.697Z,20.82
2019-03-30T13:05:46.918Z,24.92
2019-03-30T13:08:25.608Z,25.80
2019-03-30T13:11:02.138Z,87.42
2019-03-30T13:14:06.159Z,60.80
2019-03-30T13:16:43.306Z,19.90
2019-03-30T13:19:59.545Z,22.87
2019-03-30T13:22:35.781Z,22.65
2019-03-30T13:25:08.870Z,32.10
2019-03-30T13:27:43.149Z,18.40
2019-03-30T13:30:16.477Z,20.40
2019-03-30T13:32:49.127Z,19.07
2019-03-30T13:35:24.598Z,20.90
2019-03-30T13:38:15.227Z,128.40
2019-03-30T13:40:49.048Z,21.10
2019-03-30T13:43:21.918Z,19.60
2019-03-30T13:45:54.637Z,20.05
2019-03-30T13:48:27.337Z,19.98
2019-03-30T13:51:00.049Z,16.10
2019-03-30T13:53:38.628Z,19.15
2019-03-30T13:56:17.073Z,19.40
2019-03-30T13:58:43.951Z,18.65
2019-03-30T14:01:17.052Z,18.82
2019-03-30T14:03:49.808Z,18.70
2019-03-30T14:06:22.397Z,20.62
2019-03-30T14:08:54.986Z,19.95
2019-03-30T14:11:27.812Z,18.10
2019-03-30T14:14:08.869Z,18.02
2019-03-30T14:16:48.007Z,65.45
2019-03-30T14:19:27.454Z,17.40
2019-03-30T14:22:03.057Z,17.60
2019-03-30T14:24:36.031Z,16.70
2019-03-30T14:27:11.750Z,18.25
2019-03-30T14:29:45.149Z,17.25
2019-03-30T14:32:20.028Z,17.20
2019-03-30T14:34:53.346Z,16.42
2019-03-30T14:37:28.796Z,16.55
2019-03-30T14:40:34.422Z,19.27
2019-03-30T14:43:25.917Z,18.98
2019-03-30T14:46:04.924Z,19.07
2019-03-30T14:49:04.597Z,19.00
2019-03-30T14:51:45.547Z,21.12
2019-03-30T14:54:24.347Z,20.75
2019-03-30T14:57:13.031Z,17.50
2019-03-30T14:59:50.050Z,18.67
2019-03-30T15:02:32.399Z,23.10
2019-03-30T15:05:13.629Z,19.10
2019-03-30T15:11:17.971Z,16.40
2019-03-30T15:13:50.757Z,16.93
2019-03-30T15:17:20.997Z,17.60
2019-03-30T15:20:32.312Z,48.38
2019-03-30T15:24:02.337Z,41.33
2019-03-30T15:26:59.861Z,18.20
2019-03-30T15:33:26.937Z,42.33
2019-03-30T15:43:43.288Z,44.83
2019-03-30T15:47:04.678Z,155.00
2019-03-30T15:50:38.356Z,18.45
2019-03-30T15:53:46.231Z,69.90
2019-03-30T15:55:25.897Z,73.10
2019-03-30T15:56:34.376Z,14.68
2019-03-30T15:59:36.547Z,15.68
2019-03-30T16:10:59.411Z,17.20
2019-03-30T16:12:32.247Z,19.37
2019-03-30T16:22:32.826Z,218.10
2019-03-30T16:25:25.200Z,93.80
2019-03-30T16:27:59.042Z,44.75
2019-03-30T16:30:58.967Z,39.38
2019-03-30T16:33:43.017Z,19.95
2019-03-30T16:36:38.096Z,80.42
2019-03-30T16:39:21.446Z,58.05
2019-03-30T16:41:53.698Z,20.97
2019-03-30T16:44:51.907Z,20.00
2019-03-30T16:50:17.737Z,21.05
2019-03-30T16:52:54.186Z,23.85
2019-03-30T16:55:29.957Z,28.60
2019-03-30T16:58:12.408Z,27.80
2019-03-30T17:05:53.238Z,61.05
2019-03-30T17:08:31.849Z,65.32
2019-03-30T17:11:04.831Z,60.58
2019-03-30T17:13:38.777Z,47.70
2019-03-30T17:16:15.028Z,45.85
2019-03-30T17:19:07.667Z,41.55
2019-03-30T17:21:43.767Z,36.58
2019-03-30T17:24:16.257Z,33.78
2019-03-30T17:26:48.977Z,27.17
2019-03-30T17:29:21.467Z,27.50
2019-03-30T17:31:54.257Z,22.95
2019-03-30T17:34:26.748Z,23.35
2019-03-30T17:36:59.298Z,23.25
2019-03-30T17:39:31.797Z,25.43
2019-03-30T17:42:04.397Z,30.05
2019-03-30T17:44:37.186Z,28.15
2019-03-30T17:47:09.847Z,28.40
2019-03-30T17:49:42.557Z,25.45
2019-03-30T17:52:15.437Z,25.90
2019-03-30T17:54:49.227Z,27.77
2019-03-30T17:57:21.698Z,29.70
2019-03-30T17:59:54.298Z,27.95
2019-03-30T18:02:32.517Z,35.35
2019-03-30T18:05:11.237Z,28.55
2019-03-30T18:07:45.386Z,30.40
2019-03-30T18:10:18.247Z,30.68
2019-03-30T18:12:51.008Z,31.68
2019-03-30T18:15:24.210Z,37.35
2019-03-30T18:17:57.064Z,49.58
2019-03-30T18:20:29.779Z,44.63
2019-03-30T18:23:02.558Z,48.23
2019-03-30T18:25:35.278Z,49.25
2019-03-30T18:28:07.741Z,43.52
2019-03-30T18:30:41.388Z,41.45
2019-03-30T18:33:13.917Z,39.27
2019-03-30T18:35:46.795Z,31.17
2019-03-30T18:38:21.957Z,31.37
2019-03-30T18:40:57.176Z,35.30
2019-03-30T18:43:30.926Z,33.48
2019-03-30T18:46:03.442Z,33.58
2019-03-30T18:48:36.324Z,30.27
2019-03-30T18:51:09.176Z,32.55
2019-03-30T18:53:42.816Z,35.98
2019-03-30T18:56:15.906Z,36.85
2019-03-30T18:58:48.614Z,38.45
2019-03-30T19:01:21.314Z,45.08
2019-03-30T19:03:53.956Z,41.88
2019-03-30T19:06:26.906Z,37.42
2019-03-30T19:08:59.676Z,44.13
2019-03-30T19:11:33.014Z,41.95
2019-03-30T19:14:06.020Z,39.30
2019-03-30T19:16:38.786Z,45.75
2019-03-30T19:19:11.369Z,40.28
2019-03-30T19:21:45.067Z,42.27
2019-03-30T19:24:18.544Z,46.35
2019-03-30T19:26:55.277Z,45.28
2019-03-30T19:29:28.227Z,44.67
2019-03-30T19:32:02.095Z,41.70
2019-03-30T19:34:35.176Z,42.35
2019-03-30T19:37:07.990Z,39.98
2019-03-30T19:39:40.806Z,41.23
2019-03-30T19:42:15.711Z,36.48
2019-03-30T19:44:48.374Z,41.55
2019-03-30T19:47:21.116Z,49.67
2019-03-30T19:49:54.026Z,42.45
2019-03-30T19:52:39.265Z,48.33
2019-03-30T19:55:00.906Z,41.55
2019-03-30T19:57:33.899Z,36.48
2019-03-30T20:00:07.616Z,34.75
2019-03-30T20:02:41.648Z,35.80
2019-03-30T20:05:14.735Z,36.55
2019-03-30T20:07:47.415Z,35.25
2019-03-30T20:10:20.719Z,36.75
2019-03-30T20:12:54.306Z,37.95
2019-03-30T20:15:27.275Z,34.98
2019-03-30T20:18:00.258Z,40.20
2019-03-30T20:20:33.079Z,35.52
2019-03-30T20:23:06.706Z,36.40
2019-03-30T20:25:39.520Z,37.75
2019-03-30T20:28:12.380Z,34.60
2019-03-30T20:30:45.074Z,32.13
2019-03-30T20:33:19.200Z,34.00
2019-03-30T20:35:52.006Z,33.05
2019-03-30T20:38:24.756Z,34.73
2019-03-30T20:40:57.480Z,34.95
2019-03-30T20:43:36.627Z,39.00
2019-03-30T20:46:09.416Z,36.85
2019-03-30T20:48:42.997Z,49.25
2019-03-30T20:51:17.206Z,38.38
2019-03-30T20:53:50.257Z,45.28
2019-03-30T20:56:23.235Z,46.00
2019-03-30T20:58:55.914Z,52.25
2019-03-30T21:01:28.977Z,50.70
2019-03-30T21:04:02.098Z,40.52
2019-03-30T21:06:35.014Z,41.50
2019-03-30T21:09:09.356Z,39.48
2019-03-30T21:11:42.396Z,39.80
2019-03-30T21:14:15.216Z,43.35
2019-03-30T21:16:49.140Z,37.28
2019-03-30T21:19:21.817Z,42.58
2019-03-30T21:21:54.416Z,43.48
2019-03-30T21:24:26.957Z,40.63
2019-03-30T21:26:59.647Z,44.00
2019-03-30T21:29:32.326Z,51.08
2019-03-30T21:32:05.836Z,46.02
2019-03-30T21:34:38.826Z,44.18
2019-03-30T21:37:11.726Z,45.65
2019-03-30T21:39:44.706Z,50.15
2019-03-30T21:42:17.287Z,49.95
2019-03-30T21:44:50.216Z,38.48
2019-03-30T21:47:22.936Z,46.33
2019-03-30T21:49:55.617Z,47.88
2019-03-30T21:52:28.238Z,43.83
2019-03-30T21:55:01.307Z,49.27
2019-03-30T21:57:35.006Z,57.85
2019-03-30T22:00:11.461Z,54.42
2019-03-30T22:02:44.150Z,56.60
2019-03-30T22:05:16.757Z,64.00
2019-03-30T22:07:49.726Z,55.88
2019-03-30T22:10:29.505Z,58.87
2019-03-30T22:13:02.726Z,52.53
2019-03-30T22:15:35.597Z,57.50
2019-03-30T22:18:08.246Z,55.73
2019-03-30T22:20:40.743Z,51.58
2019-03-30T22:23:13.583Z,47.90
2019-03-30T22:25:46.524Z,50.17
2019-03-30T22:28:19.384Z,49.45
2019-03-30T22:30:52.096Z,48.95
2019-03-30T22:33:24.750Z,49.08
2019-03-30T22:35:57.506Z,48.98
2019-03-30T22:38:30.113Z,46.18
2019-03-30T22:41:02.526Z,43.70
2019-03-30T22:43:35.176Z,42.00
2019-03-30T22:46:07.954Z,41.15
2019-03-30T22:48:40.754Z,40.20
2019-03-30T22:51:13.314Z,34.63
2019-03-30T22:53:46.065Z,35.92
2019-03-30T22:56:19.104Z,37.63
2019-03-30T22:58:52.586Z,38.35
2019-03-30T23:01:25.804Z,39.85
2019-03-30T23:03:58.505Z,40.92
2019-03-30T23:06:31.146Z,42.60
2019-03-30T23:09:05.023Z,43.45
2019-03-30T23:11:37.837Z,49.40
2019-03-30T23:14:10.298Z,47.38
2019-03-30T23:16:42.877Z,53.05
2019-03-30T23:19:15.538Z,54.77
2019-03-30T23:21:48.233Z,53.83
2019-03-30T23:24:20.779Z,53.15
2019-03-30T23:26:53.357Z,52.65
2019-03-30T23:29:26.014Z,58.33
2019-03-30T23:31:58.482Z,57.53
2019-03-30T23:34:30.999Z,52.00
2019-03-30T23:37:03.594Z,55.88
2019-03-30T23:39:36.444Z,59.53
2019-03-30T23:42:08.893Z,51.92
2019-03-30T23:44:41.534Z,55.73
2019-03-30T23:47:14.327Z,51.45
2019-03-30T23:49:46.936Z,51.85
2019-03-30T23:52:19.340Z,53.92
2019-03-30T23:54:51.855Z,51.90
2019-03-30T23:57:24.387Z,58.10
2019-03-30T23:59:56.975Z,54.00
